createdAt,value
2018-12-01T14:21:18.863Z,85.03
2018-12-01T14:23:53.692Z,82.49
2018-12-01T14:26:28.669Z,79.02
2018-12-01T14:29:03.558Z,75.91
2018-12-01T14:31:38.484Z,73.94
2018-12-01T14:34:13.517Z,71.58
2018-12-01T14:36:48.555Z,70.80
2018-12-01T14:39:23.400Z,70.03
2018-12-01T14:41:58.522Z,69.27
2018-12-01T14:44:33.758Z,69.47
2018-12-01T14:47:08.685Z,68.53
2018-12-01T14:49:43.515Z,67.74
2018-12-01T14:52:20.206Z,67.33
2018-12-01T14:54:54.915Z,67.07
2018-12-01T14:57:29.783Z,66.47
2018-12-01T15:00:07.647Z,66.44
2018-12-01T15:02:42.272Z,65.74
2018-12-01T15:05:17.098Z,65.71
2018-12-01T15:07:51.912Z,65.44
2018-12-01T15:10:27.986Z,65.18
2018-12-01T15:13:02.710Z,64.97
2018-12-01T15:15:38.153Z,64.95
2018-12-01T15:18:14.009Z,64.80
2018-12-01T15:20:49.141Z,64.67
2018-12-01T15:23:23.971Z,64.64
2018-12-01T15:25:58.799Z,64.39
2018-12-01T15:28:34.037Z,64.20
2018-12-01T15:31:09.012Z,64.28
2018-12-01T15:33:44.207Z,64.45
2018-12-01T15:36:19.036Z,64.25
2018-12-01T15:38:54.481Z,64.03
2018-12-01T15:41:30.537Z,63.82
2018-12-01T15:44:06.185Z,63.77
2018-12-01T15:46:41.015Z,63.95
2018-12-01T15:49:15.946Z,63.73
2018-12-01T15:51:51.496Z,63.90
2018-12-01T15:54:26.421Z,63.75
2018-12-01T15:57:02.177Z,63.90
2018-12-01T15:59:37.224Z,63.50
2018-12-01T16:02:12.322Z,63.68
2018-12-01T16:04:47.172Z,63.42
2018-12-01T16:07:22.004Z,63.62
2018-12-01T16:09:56.932Z,63.79
2018-12-01T16:12:31.605Z,64.42
2018-12-01T16:15:10.600Z,63.96
2018-12-01T16:17:45.617Z,64.60
2018-12-01T16:20:20.554Z,64.84
2018-12-01T16:22:55.363Z,65.24
2018-12-01T16:25:30.309Z,64.93
2018-12-01T16:28:05.241Z,65.26
2018-12-01T16:30:43.278Z,65.35
2018-12-01T16:33:21.167Z,65.48
2018-12-01T16:35:56.075Z,65.89
2018-12-01T16:38:34.237Z,66.11
2018-12-01T16:41:20.869Z,66.56
2018-12-01T16:43:55.822Z,67.69
2018-12-01T16:46:30.752Z,66.79
2018-12-01T16:49:06.002Z,66.46
2018-12-01T16:51:41.005Z,66.28
2018-12-01T16:54:16.058Z,65.87
2018-12-01T16:56:51.091Z,65.41
2018-12-01T16:59:26.332Z,64.82
2018-12-01T17:02:01.265Z,64.29
2018-12-01T17:04:36.296Z,64.43
2018-12-01T17:07:11.021Z,64.14
2018-12-01T17:09:45.958Z,64.57
2018-12-01T17:12:20.883Z,64.81
2018-12-01T17:14:55.894Z,64.02
2018-12-01T17:17:30.849Z,63.99
2018-12-01T17:20:08.937Z,65.05
2018-12-01T17:22:49.213Z,65.17
2018-12-01T17:25:24.303Z,64.74
2018-12-01T17:27:59.913Z,64.65
2018-12-01T17:30:34.824Z,64.76
2018-12-01T17:33:10.780Z,64.61
2018-12-01T17:35:45.814Z,64.55
2018-12-01T17:38:21.622Z,64.48
2018-12-01T17:41:16.723Z,64.06
2018-12-01T17:43:55.489Z,64.22
2018-12-01T17:46:30.319Z,64.33
2018-12-01T17:49:05.762Z,64.26
2018-12-01T17:51:40.591Z,64.72
2018-12-01T17:54:17.044Z,64.72
2018-12-01T17:56:52.195Z,64.41
2018-12-01T17:59:26.951Z,64.12
2018-12-01T18:02:01.959Z,64.05
2018-12-01T18:04:36.887Z,64.08
2018-12-01T18:07:11.923Z,64.37
2018-12-01T18:09:47.056Z,65.39
2018-12-01T18:12:21.679Z,66.62
2018-12-01T18:14:56.510Z,68.39
2018-12-01T18:17:31.543Z,68.53
2018-12-01T18:20:12.508Z,67.80
2018-12-01T18:22:51.835Z,67.95
2018-12-01T18:25:27.765Z,68.21
2018-12-01T18:28:02.741Z,67.57
2018-12-01T18:30:38.773Z,66.77
2018-12-01T18:33:22.533Z,66.69
2018-12-01T18:35:57.362Z,65.91
2018-12-01T18:38:33.214Z,65.41
2018-12-01T18:41:09.247Z,65.33
2018-12-01T18:43:44.307Z,65.71
2018-12-01T18:46:19.342Z,66.46
2018-12-01T18:48:54.171Z,67.05
2018-12-01T18:51:29.099Z,66.80
2018-12-01T18:54:04.030Z,66.77
2018-12-01T18:56:39.883Z,66.83
2018-12-01T18:59:14.816Z,67.28
2018-12-01T19:01:51.794Z,67.51
2018-12-01T19:04:26.828Z,68.15
2018-12-01T19:07:01.658Z,69.44
2018-12-01T19:09:36.690Z,69.76
2018-12-01T19:12:11.520Z,68.58
2018-12-01T19:14:46.348Z,68.71
2018-12-01T19:17:21.484Z,68.56
2018-12-01T19:19:56.416Z,67.78
2018-12-01T19:22:31.454Z,67.29
2018-12-01T19:25:11.808Z,67.51
2018-12-01T19:27:47.051Z,67.99
2018-12-01T19:30:22.708Z,68.42
2018-12-01T19:33:03.273Z,68.07
2018-12-01T19:35:38.294Z,67.01
2018-12-01T19:38:16.205Z,66.97
2018-12-01T19:40:51.124Z,66.58
2018-12-01T19:43:26.367Z,66.67
2018-12-01T19:46:02.015Z,66.60
2018-12-01T19:48:36.839Z,65.85
2018-12-01T19:51:11.737Z,65.94
2018-12-01T19:53:46.805Z,66.07
2018-12-01T19:56:21.660Z,67.44
2018-12-01T19:58:57.900Z,68.61
2018-12-01T20:01:34.268Z,69.24
2018-12-01T20:04:09.604Z,68.40
2018-12-01T20:06:45.149Z,68.05
2018-12-01T20:09:20.078Z,67.62
2018-12-01T20:11:54.951Z,68.75
2018-12-01T20:14:29.753Z,70.34
2018-12-01T20:17:04.884Z,70.41
2018-12-01T20:19:39.601Z,70.45
2018-12-01T20:22:14.429Z,69.81
2018-12-01T20:24:49.360Z,69.52
2018-12-01T20:27:24.189Z,69.78
2018-12-01T20:29:59.017Z,69.55
2018-12-01T20:32:34.257Z,69.60
2018-12-01T20:35:10.317Z,68.43
2018-12-01T20:37:47.954Z,67.76
2018-12-01T20:40:22.844Z,67.44
2018-12-01T20:42:58.793Z,66.73
2018-12-01T20:45:34.442Z,66.31
2018-12-01T20:48:09.373Z,66.68
2018-12-01T20:50:44.056Z,66.49
2018-12-01T20:53:19.207Z,67.23
2018-12-01T20:55:56.457Z,66.66
2018-12-01T20:58:32.623Z,66.42
2018-12-01T21:01:07.617Z,66.02
2018-12-01T21:03:42.653Z,67.34
2018-12-01T21:06:17.889Z,66.76
2018-12-01T21:08:52.819Z,66.18
2018-12-01T21:11:27.600Z,66.80
2018-12-01T21:14:02.987Z,67.07
2018-12-01T21:16:38.531Z,66.92
2018-12-01T21:19:13.874Z,66.74
2018-12-01T21:21:48.805Z,66.89
2018-12-01T21:24:23.903Z,66.32
2018-12-01T21:26:58.817Z,66.31
2018-12-01T21:29:34.010Z,67.15
2018-12-01T21:32:09.148Z,67.29
2018-12-01T21:34:44.081Z,66.48
2018-12-01T21:37:19.314Z,65.89
2018-12-01T21:39:54.558Z,65.58
2018-12-01T21:42:30.202Z,66.34
2018-12-01T21:45:05.967Z,67.43
2018-12-01T21:47:40.709Z,67.60
2018-12-01T21:50:17.035Z,67.08
2018-12-01T21:52:53.447Z,66.85
2018-12-01T21:55:28.340Z,66.68
2018-12-01T21:58:03.792Z,66.14
2018-12-01T22:00:40.741Z,66.04
2018-12-01T22:03:16.521Z,66.11
2018-12-01T22:05:53.226Z,66.13
2018-12-01T22:08:28.764Z,65.88
2018-12-01T22:11:03.763Z,66.12
2018-12-01T22:13:38.601Z,65.79
2018-12-01T22:16:13.421Z,65.77
2018-12-01T22:18:48.151Z,65.47
2018-12-01T22:21:23.818Z,66.57
2018-12-01T22:23:58.625Z,66.36
2018-12-01T22:26:33.458Z,66.04
2018-12-01T22:29:08.304Z,65.62
2018-12-01T22:31:43.316Z,65.89
2018-12-01T22:34:17.999Z,65.48
2018-12-01T22:36:52.694Z,66.72
2018-12-01T22:39:27.465Z,66.17
2018-12-01T22:42:02.223Z,65.37
2018-12-01T22:44:37.153Z,65.38
2018-12-01T22:47:12.085Z,65.07
2018-12-01T22:49:47.221Z,65.05
2018-12-01T22:52:22.113Z,64.92
2018-12-01T22:54:57.039Z,63.70
2018-12-01T22:57:32.016Z,64.22
2018-12-01T23:00:11.547Z,63.68
2018-12-01T23:02:46.365Z,63.23
2018-12-01T23:05:21.627Z,63.54
2018-12-01T23:07:56.804Z,63.31
2018-12-01T23:10:31.550Z,62.98
2018-12-01T23:13:07.370Z,63.28
2018-12-01T23:15:42.693Z,63.29
2018-12-01T23:18:19.626Z,64.35
2018-12-01T23:20:54.397Z,64.53
2018-12-01T23:23:29.316Z,64.59
2018-12-01T23:26:04.246Z,64.53
2018-12-01T23:28:38.941Z,63.80
2018-12-01T23:31:13.803Z,64.26
2018-12-01T23:33:48.734Z,64.09
2018-12-01T23:36:23.341Z,64.67
2018-12-01T23:38:58.121Z,65.16
2018-12-01T23:41:33.118Z,65.31
2018-12-01T23:44:10.465Z,65.91
2018-12-01T23:46:45.336Z,65.82
2018-12-01T23:49:20.185Z,65.42
2018-12-01T23:51:55.300Z,65.16
2018-12-01T23:54:29.973Z,65.31
2018-12-01T23:57:05.062Z,65.85
2018-12-01T23:59:39.889Z,65.77
